sensor_id;sensor_type;location;lat;lon;timestamp;pressure;altitude;pressure_sealevel;temperature;humidity
48156;BME280;35568;48.104;11.782;2023-05-11T00:01:35;95188.54;;;8.69;58.99
48156;BME280;35568;48.104;11.782;2023-05-11T00:04:02;95186.03;;;8.69;59.38
48156;BME280;35568;48.104;11.782;2023-05-11T00:06:29;95187.10;;;8.77;58.90
48156;BME280;35568;48.104;11.782;2023-05-11T00:08:56;95185.67;;;8.63;59.17
48156;BME280;35568;48.104;11.782;2023-05-11T00:11:22;95186.56;;;8.74;59.08
48156;BME280;35568;48.104;11.782;2023-05-11T00:13:49;95188.01;;;8.80;59.03
48156;BME280;35568;48.104;11.782;2023-05-11T00:16:16;95187.36;;;8.89;58.95
48156;BME280;35568;48.104;11.782;2023-05-11T00:18:43;95188.07;;;8.91;58.94
48156;BME280;35568;48.104;11.782;2023-05-11T00:21:10;95190.83;;;8.91;58.77
48156;BME280;35568;48.104;11.782;2023-05-11T00:23:36;95189.04;;;8.86;58.97
48156;BME280;35568;48.104;11.782;2023-05-11T00:26:03;95182.49;;;8.89;58.82
48156;BME280;35568;48.104;11.782;2023-05-11T00:28:30;95179.86;;;8.71;59.20
48156;BME280;35568;48.104;11.782;2023-05-11T00:30:57;95177.46;;;9.02;58.87
48156;BME280;35568;48.104;11.782;2023-05-11T00:33:24;95174.11;;;8.82;58.98
48156;BME280;35568;48.104;11.782;2023-05-11T00:35:51;95171.09;;;8.76;59.14
48156;BME280;35568;48.104;11.782;2023-05-11T00:38:18;95169.11;;;8.70;58.95
48156;BME280;35568;48.104;11.782;2023-05-11T00:40:45;95167.83;;;8.75;58.94
48156;BME280;35568;48.104;11.782;2023-05-11T00:43:11;95171.43;;;8.46;59.49
48156;BME280;35568;48.104;11.782;2023-05-11T00:45:38;95172.65;;;8.74;59.46
48156;BME280;35568;48.104;11.782;2023-05-11T00:48:05;95167.80;;;8.85;59.08
48156;BME280;35568;48.104;11.782;2023-05-11T00:50:33;95167.53;;;8.91;59.10
48156;BME280;35568;48.104;11.782;2023-05-11T00:53:01;95167.27;;;8.76;59.04
48156;BME280;35568;48.104;11.782;2023-05-11T00:55:28;95168.48;;;8.99;58.80
48156;BME280;35568;48.104;11.782;2023-05-11T00:57:56;95169.66;;;8.66;59.32
48156;BME280;35568;48.104;11.782;2023-05-11T01:00:22;95168.79;;;8.94;59.17
48156;BME280;35568;48.104;11.782;2023-05-11T01:02:49;95168.80;;;8.69;59.57
48156;BME280;35568;48.104;11.782;2023-05-11T01:05:16;95168.49;;;8.78;59.31
48156;BME280;35568;48.104;11.782;2023-05-11T01:07:50;95164.16;;;8.92;59.00
48156;BME280;35568;48.104;11.782;2023-05-11T01:10:39;95164.85;;;8.75;59.34
48156;BME280;35568;48.104;11.782;2023-05-11T01:13:12;95161.68;;;8.75;59.20
48156;BME280;35568;48.104;11.782;2023-05-11T01:15:46;95162.23;;;8.76;59.24
48156;BME280;35568;48.104;11.782;2023-05-11T01:18:19;95162.77;;;8.34;59.11
48156;BME280;35568;48.104;11.782;2023-05-11T01:20:54;95161.52;;;8.96;58.88
48156;BME280;35568;48.104;11.782;2023-05-11T01:23:39;95159.87;;;8.98;58.67
48156;BME280;35568;48.104;11.782;2023-05-11T01:26:21;95161.80;;;8.99;58.66
48156;BME280;35568;48.104;11.782;2023-05-11T01:29:11;95159.76;;;8.51;58.95
48156;BME280;35568;48.104;11.782;2023-05-11T01:31:45;95157.12;;;8.73;59.12
48156;BME280;35568;48.104;11.782;2023-05-11T01:34:16;95156.66;;;8.70;58.67
48156;BME280;35568;48.104;11.782;2023-05-11T01:36:51;95160.88;;;8.80;58.84
48156;BME280;35568;48.104;11.782;2023-05-11T01:39:22;95159.80;;;8.97;58.51
48156;BME280;35568;48.104;11.782;2023-05-11T01:41:52;95160.06;;;8.93;58.68
48156;BME280;35568;48.104;11.782;2023-05-11T01:44:24;95162.78;;;8.66;58.73
48156;BME280;35568;48.104;11.782;2023-05-11T01:46:54;95166.41;;;8.82;58.48
48156;BME280;35568;48.104;11.782;2023-05-11T01:49:22;95167.41;;;8.67;59.14
48156;BME280;35568;48.104;11.782;2023-05-11T01:51:50;95164.95;;;8.75;58.66
48156;BME280;35568;48.104;11.782;2023-05-11T01:54:19;95161.87;;;8.64;58.62
48156;BME280;35568;48.104;11.782;2023-05-11T01:56:48;95160.52;;;8.94;58.65
48156;BME280;35568;48.104;11.782;2023-05-11T01:59:17;95160.88;;;8.57;59.14
48156;BME280;35568;48.104;11.782;2023-05-11T02:01:45;95161.21;;;8.59;59.23
48156;BME280;35568;48.104;11.782;2023-05-11T02:04:13;95158.95;;;8.75;59.03
48156;BME280;35568;48.104;11.782;2023-05-11T02:06:42;95158.85;;;8.75;58.92
48156;BME280;35568;48.104;11.782;2023-05-11T02:09:10;95153.15;;;8.49;59.10
48156;BME280;35568;48.104;11.782;2023-05-11T02:11:39;95155.53;;;8.75;59.07
48156;BME280;35568;48.104;11.782;2023-05-11T02:14:09;95158.35;;;8.44;59.15
48156;BME280;35568;48.104;11.782;2023-05-11T02:16:37;95153.90;;;8.33;59.42
48156;BME280;35568;48.104;11.782;2023-05-11T02:19:05;95153.41;;;8.55;59.16
48156;BME280;35568;48.104;11.782;2023-05-11T02:21:33;95151.81;;;8.88;59.13
48156;BME280;35568;48.104;11.782;2023-05-11T02:24:04;95153.86;;;8.57;59.25
48156;BME280;35568;48.104;11.782;2023-05-11T02:26:32;95154.53;;;8.59;59.19
48156;BME280;35568;48.104;11.782;2023-05-11T02:28:59;95152.11;;;8.60;59.02
48156;BME280;35568;48.104;11.782;2023-05-11T02:31:28;95153.46;;;8.64;58.77
48156;BME280;35568;48.104;11.782;2023-05-11T02:34:01;95148.97;;;8.42;58.98
48156;BME280;35568;48.104;11.782;2023-05-11T02:36:30;95150.07;;;8.51;59.13
48156;BME280;35568;48.104;11.782;2023-05-11T02:39:05;95149.16;;;8.58;59.01
48156;BME280;35568;48.104;11.782;2023-05-11T02:41:36;95150.08;;;8.53;58.63
48156;BME280;35568;48.104;11.782;2023-05-11T02:44:06;95150.23;;;8.57;58.79
48156;BME280;35568;48.104;11.782;2023-05-11T02:46:35;95151.92;;;8.58;58.86
48156;BME280;35568;48.104;11.782;2023-05-11T02:49:07;95146.23;;;8.65;58.60
48156;BME280;35568;48.104;11.782;2023-05-11T02:51:36;95145.60;;;8.42;58.44
48156;BME280;35568;48.104;11.782;2023-05-11T02:54:05;95146.03;;;8.45;58.81
48156;BME280;35568;48.104;11.782;2023-05-11T02:56:32;95147.23;;;8.08;59.31
48156;BME280;35568;48.104;11.782;2023-05-11T02:58:59;95143.36;;;8.13;59.90
48156;BME280;35568;48.104;11.782;2023-05-11T03:03:01;95142.19;;;8.19;59.20
48156;BME280;35568;48.104;11.782;2023-05-11T03:05:28;95140.88;;;8.13;59.16
48156;BME280;35568;48.104;11.782;2023-05-11T03:07:57;95137.69;;;7.93;59.43
48156;BME280;35568;48.104;11.782;2023-05-11T03:10:26;95136.35;;;8.04;59.54
48156;BME280;35568;48.104;11.782;2023-05-11T03:12:54;95136.82;;;8.35;59.34
48156;BME280;35568;48.104;11.782;2023-05-11T03:15:22;95136.32;;;8.21;59.12
48156;BME280;35568;48.104;11.782;2023-05-11T03:17:50;95137.09;;;8.56;59.06
48156;BME280;35568;48.104;11.782;2023-05-11T03:20:20;95130.73;;;8.01;59.55
48156;BME280;35568;48.104;11.782;2023-05-11T03:22:48;95131.64;;;8.03;59.41
48156;BME280;35568;48.104;11.782;2023-05-11T03:25:16;95128.73;;;7.93;59.46
48156;BME280;35568;48.104;11.782;2023-05-11T03:27:44;95129.50;;;8.16;59.52
48156;BME280;35568;48.104;11.782;2023-05-11T03:30:13;95127.84;;;7.98;59.02
48156;BME280;35568;48.104;11.782;2023-05-11T03:32:41;95123.74;;;8.23;59.16
48156;BME280;35568;48.104;11.782;2023-05-11T03:35:08;95126.13;;;8.40;59.14
48156;BME280;35568;48.104;11.782;2023-05-11T03:37:36;95123.95;;;7.92;59.39
48156;BME280;35568;48.104;11.782;2023-05-11T03:40:05;95119.34;;;7.76;59.36
48156;BME280;35568;48.104;11.782;2023-05-11T03:42:35;95119.64;;;7.80;59.28
48156;BME280;35568;48.104;11.782;2023-05-11T03:45:06;95119.50;;;8.26;58.87
48156;BME280;35568;48.104;11.782;2023-05-11T03:47:35;95115.80;;;7.98;59.02
48156;BME280;35568;48.104;11.782;2023-05-11T03:50:06;95116.45;;;8.14;59.06
48156;BME280;35568;48.104;11.782;2023-05-11T03:52:34;95118.05;;;8.20;58.76
48156;BME280;35568;48.104;11.782;2023-05-11T03:55:02;95113.99;;;8.25;58.83
48156;BME280;35568;48.104;11.782;2023-05-11T03:57:29;95117.47;;;8.36;58.70
48156;BME280;35568;48.104;11.782;2023-05-11T03:59:56;95117.52;;;7.98;58.81
48156;BME280;35568;48.104;11.782;2023-05-11T04:02:23;95113.35;;;8.10;58.85
48156;BME280;35568;48.104;11.782;2023-05-11T04:04:50;95110.44;;;8.34;59.01
48156;BME280;35568;48.104;11.782;2023-05-11T04:07:17;95111.70;;;8.28;58.81
48156;BME280;35568;48.104;11.782;2023-05-11T04:09:44;95110.23;;;8.11;58.78
48156;BME280;35568;48.104;11.782;2023-05-11T04:12:12;95105.89;;;7.92;58.95
48156;BME280;35568;48.104;11.782;2023-05-11T04:14:39;95105.49;;;8.55;58.42
48156;BME280;35568;48.104;11.782;2023-05-11T04:17:06;95104.20;;;8.55;58.39
48156;BME280;35568;48.104;11.782;2023-05-11T04:19:32;95110.01;;;8.28;58.62
48156;BME280;35568;48.104;11.782;2023-05-11T04:21:59;95108.78;;;7.93;58.87
48156;BME280;35568;48.104;11.782;2023-05-11T04:24:26;95111.67;;;7.98;58.78
48156;BME280;35568;48.104;11.782;2023-05-11T04:26:55;95113.08;;;7.89;58.93
48156;BME280;35568;48.104;11.782;2023-05-11T04:29:21;95112.37;;;8.25;59.12
48156;BME280;35568;48.104;11.782;2023-05-11T04:31:48;95113.99;;;7.95;58.96
48156;BME280;35568;48.104;11.782;2023-05-11T04:34:15;95118.88;;;8.30;58.79
48156;BME280;35568;48.104;11.782;2023-05-11T04:36:42;95117.43;;;8.04;59.04
48156;BME280;35568;48.104;11.782;2023-05-11T04:39:09;95119.68;;;7.88;58.66
48156;BME280;35568;48.104;11.782;2023-05-11T04:41:35;95118.17;;;7.93;58.51
48156;BME280;35568;48.104;11.782;2023-05-11T04:44:02;95122.09;;;8.07;58.41
48156;BME280;35568;48.104;11.782;2023-05-11T04:46:29;95120.03;;;8.11;59.12
48156;BME280;35568;48.104;11.782;2023-05-11T04:48:56;95121.19;;;7.80;58.56
48156;BME280;35568;48.104;11.782;2023-05-11T04:51:23;95125.39;;;7.97;58.64
48156;BME280;35568;48.104;11.782;2023-05-11T04:53:49;95124.06;;;8.38;58.47
48156;BME280;35568;48.104;11.782;2023-05-11T04:56:16;95126.83;;;7.78;58.49
48156;BME280;35568;48.104;11.782;2023-05-11T04:58:43;95125.68;;;7.82;58.45
48156;BME280;35568;48.104;11.782;2023-05-11T05:01:10;95123.97;;;7.80;58.34
48156;BME280;35568;48.104;11.782;2023-05-11T05:03:37;95123.10;;;8.02;58.35
48156;BME280;35568;48.104;11.782;2023-05-11T05:06:04;95125.83;;;8.14;58.11
48156;BME280;35568;48.104;11.782;2023-05-11T05:08:30;95124.71;;;7.46;58.70
48156;BME280;35568;48.104;11.782;2023-05-11T05:10:57;95126.92;;;8.02;58.21
48156;BME280;35568;48.104;11.782;2023-05-11T05:13:24;95124.54;;;7.98;58.66
48156;BME280;35568;48.104;11.782;2023-05-11T05:15:51;95125.40;;;8.30;58.17
48156;BME280;35568;48.104;11.782;2023-05-11T05:18:17;95128.10;;;8.05;57.85
48156;BME280;35568;48.104;11.782;2023-05-11T05:20:44;95131.20;;;8.02;58.29
48156;BME280;35568;48.104;11.782;2023-05-11T05:23:13;95128.47;;;8.25;58.04
48156;BME280;35568;48.104;11.782;2023-05-11T05:25:40;95125.70;;;7.89;58.38
48156;BME280;35568;48.104;11.782;2023-05-11T05:28:07;95125.20;;;8.05;58.18
48156;BME280;35568;48.104;11.782;2023-05-11T05:30:33;95128.99;;;8.44;57.94
48156;BME280;35568;48.104;11.782;2023-05-11T05:33:00;95129.73;;;8.53;57.87
48156;BME280;35568;48.104;11.782;2023-05-11T05:35:27;95134.37;;;8.68;57.99
48156;BME280;35568;48.104;11.782;2023-05-11T05:37:54;95134.86;;;8.73;57.62
48156;BME280;35568;48.104;11.782;2023-05-11T05:40:21;95141.73;;;8.51;57.45
48156;BME280;35568;48.104;11.782;2023-05-11T05:42:47;95140.78;;;8.43;57.56
48156;BME280;35568;48.104;11.782;2023-05-11T05:45:14;95143.05;;;8.58;57.63
48156;BME280;35568;48.104;11.782;2023-05-11T05:47:41;95144.67;;;7.54;58.00
48156;BME280;35568;48.104;11.782;2023-05-11T05:50:08;95146.41;;;8.85;56.86
48156;BME280;35568;48.104;11.782;2023-05-11T05:52:36;95148.59;;;8.20;56.96
48156;BME280;35568;48.104;11.782;2023-05-11T05:55:03;95145.93;;;8.41;57.58
48156;BME280;35568;48.104;11.782;2023-05-11T05:57:30;95149.95;;;8.41;57.29
48156;BME280;35568;48.104;11.782;2023-05-11T05:59:57;95153.21;;;8.56;57.13
48156;BME280;35568;48.104;11.782;2023-05-11T06:02:24;95150.33;;;8.15;57.72
48156;BME280;35568;48.104;11.782;2023-05-11T06:04:50;95147.00;;;8.35;57.64
48156;BME280;35568;48.104;11.782;2023-05-11T06:07:17;95148.86;;;8.67;57.42
48156;BME280;35568;48.104;11.782;2023-05-11T06:09:44;95148.29;;;8.20;57.54
48156;BME280;35568;48.104;11.782;2023-05-11T06:12:11;95147.89;;;8.18;58.08
48156;BME280;35568;48.104;11.782;2023-05-11T06:14:38;95150.01;;;8.32;57.93
48156;BME280;35568;48.104;11.782;2023-05-11T06:17:05;95151.59;;;8.30;57.86
48156;BME280;35568;48.104;11.782;2023-05-11T06:19:31;95156.88;;;8.65;57.43
48156;BME280;35568;48.104;11.782;2023-05-11T06:21:58;95156.17;;;8.40;57.36
48156;BME280;35568;48.104;11.782;2023-05-11T06:24:25;95158.09;;;8.32;57.70
48156;BME280;35568;48.104;11.782;2023-05-11T06:26:52;95158.65;;;8.12;57.64
48156;BME280;35568;48.104;11.782;2023-05-11T06:29:19;95160.64;;;7.99;57.95
48156;BME280;35568;48.104;11.782;2023-05-11T06:31:45;95158.16;;;8.00;57.89
48156;BME280;35568;48.104;11.782;2023-05-11T06:34:12;95158.02;;;8.58;57.38
48156;BME280;35568;48.104;11.782;2023-05-11T06:36:39;95157.42;;;8.79;57.56
48156;BME280;35568;48.104;11.782;2023-05-11T06:39:06;95157.33;;;8.35;57.95
48156;BME280;35568;48.104;11.782;2023-05-11T06:41:33;95155.28;;;8.48;57.71
48156;BME280;35568;48.104;11.782;2023-05-11T06:43:59;95155.85;;;8.40;57.61
48156;BME280;35568;48.104;11.782;2023-05-11T06:46:26;95154.48;;;8.44;57.86
48156;BME280;35568;48.104;11.782;2023-05-11T06:48:53;95153.01;;;8.37;57.54
48156;BME280;35568;48.104;11.782;2023-05-11T06:51:20;95154.11;;;8.60;57.64
48156;BME280;35568;48.104;11.782;2023-05-11T06:53:47;95155.60;;;8.47;57.51
48156;BME280;35568;48.104;11.782;2023-05-11T06:56:14;95156.74;;;8.25;57.96
48156;BME280;35568;48.104;11.782;2023-05-11T06:58:41;95157.77;;;8.44;57.75
48156;BME280;35568;48.104;11.782;2023-05-11T07:01:09;95155.54;;;8.39;57.91
48156;BME280;35568;48.104;11.782;2023-05-11T07:03:37;95153.94;;;8.30;57.86
48156;BME280;35568;48.104;11.782;2023-05-11T07:06:04;95155.24;;;8.62;57.69
48156;BME280;35568;48.104;11.782;2023-05-11T07:08:31;95153.82;;;8.62;57.89
48156;BME280;35568;48.104;11.782;2023-05-11T07:10:58;95153.20;;;8.53;57.78
48156;BME280;35568;48.104;11.782;2023-05-11T07:13:25;95154.78;;;8.48;57.20
48156;BME280;35568;48.104;11.782;2023-05-11T07:15:51;95154.60;;;8.45;57.79
48156;BME280;35568;48.104;11.782;2023-05-11T07:18:18;95155.54;;;8.60;57.72
48156;BME280;35568;48.104;11.782;2023-05-11T07:20:45;95152.90;;;8.80;57.76
48156;BME280;35568;48.104;11.782;2023-05-11T07:23:12;95157.29;;;8.79;57.41
48156;BME280;35568;48.104;11.782;2023-05-11T07:25:39;95157.73;;;8.98;57.63
48156;BME280;35568;48.104;11.782;2023-05-11T07:28:05;95155.62;;;8.78;57.54
48156;BME280;35568;48.104;11.782;2023-05-11T07:30:32;95158.42;;;9.09;57.14
48156;BME280;35568;48.104;11.782;2023-05-11T07:32:59;95156.51;;;8.89;57.03
48156;BME280;35568;48.104;11.782;2023-05-11T07:35:26;95155.07;;;9.03;57.23
48156;BME280;35568;48.104;11.782;2023-05-11T07:37:53;95158.15;;;9.03;56.69
48156;BME280;35568;48.104;11.782;2023-05-11T07:40:19;95154.09;;;8.65;57.09
48156;BME280;35568;48.104;11.782;2023-05-11T07:42:46;95152.78;;;9.05;57.19
48156;BME280;35568;48.104;11.782;2023-05-11T07:45:13;95158.98;;;8.91;57.25
48156;BME280;35568;48.104;11.782;2023-05-11T07:47:40;95155.98;;;8.57;56.99
48156;BME280;35568;48.104;11.782;2023-05-11T07:50:07;95159.56;;;8.70;57.37
48156;BME280;35568;48.104;11.782;2023-05-11T07:52:34;95158.17;;;8.99;57.17
48156;BME280;35568;48.104;11.782;2023-05-11T07:55:01;95157.10;;;9.16;56.37
48156;BME280;35568;48.104;11.782;2023-05-11T07:57:28;95157.18;;;8.98;57.44
48156;BME280;35568;48.104;11.782;2023-05-11T07:59:55;95156.27;;;8.86;57.29
48156;BME280;35568;48.104;11.782;2023-05-11T08:02:22;95159.48;;;8.57;56.75
48156;BME280;35568;48.104;11.782;2023-05-11T08:04:48;95157.20;;;8.94;57.15
48156;BME280;35568;48.104;11.782;2023-05-11T08:07:15;95156.75;;;9.21;57.04
48156;BME280;35568;48.104;11.782;2023-05-11T08:09:42;95156.54;;;9.49;56.96
48156;BME280;35568;48.104;11.782;2023-05-11T08:12:09;95156.30;;;9.69;56.13
48156;BME280;35568;48.104;11.782;2023-05-11T08:14:36;95156.36;;;9.52;56.39
48156;BME280;35568;48.104;11.782;2023-05-11T08:17:02;95153.08;;;9.70;56.75
48156;BME280;35568;48.104;11.782;2023-05-11T08:19:29;95153.91;;;9.58;56.01
48156;BME280;35568;48.104;11.782;2023-05-11T08:21:56;95153.45;;;9.96;55.90
48156;BME280;35568;48.104;11.782;2023-05-11T08:24:23;95154.08;;;9.70;55.66
48156;BME280;35568;48.104;11.782;2023-05-11T08:26:50;95152.99;;;9.98;56.53
48156;BME280;35568;48.104;11.782;2023-05-11T08:29:16;95150.90;;;10.51;56.00
48156;BME280;35568;48.104;11.782;2023-05-11T08:31:43;95152.57;;;10.09;55.43
48156;BME280;35568;48.104;11.782;2023-05-11T08:34:10;95149.63;;;10.23;54.98
48156;BME280;35568;48.104;11.782;2023-05-11T08:36:37;95149.22;;;10.14;54.94
48156;BME280;35568;48.104;11.782;2023-05-11T08:39:04;95150.67;;;10.24;55.96
48156;BME280;35568;48.104;11.782;2023-05-11T08:41:30;95151.48;;;9.87;55.64
48156;BME280;35568;48.104;11.782;2023-05-11T08:43:58;95149.59;;;9.61;55.37
48156;BME280;35568;48.104;11.782;2023-05-11T08:46:28;95149.99;;;9.68;55.40
48156;BME280;35568;48.104;11.782;2023-05-11T08:48:55;95149.20;;;9.54;55.80
48156;BME280;35568;48.104;11.782;2023-05-11T08:51:22;95152.41;;;9.84;55.77
48156;BME280;35568;48.104;11.782;2023-05-11T08:53:50;95152.92;;;9.62;55.37
48156;BME280;35568;48.104;11.782;2023-05-11T08:56:16;95155.48;;;9.51;55.34
48156;BME280;35568;48.104;11.782;2023-05-11T08:58:45;95157.81;;;9.87;56.04
48156;BME280;35568;48.104;11.782;2023-05-11T09:01:13;95155.91;;;9.57;55.13
48156;BME280;35568;48.104;11.782;2023-05-11T09:03:40;95155.09;;;9.63;55.30
48156;BME280;35568;48.104;11.782;2023-05-11T09:06:09;95153.53;;;9.80;55.95
48156;BME280;35568;48.104;11.782;2023-05-11T09:08:37;95154.26;;;9.76;55.26
48156;BME280;35568;48.104;11.782;2023-05-11T09:11:05;95151.69;;;9.77;55.86
48156;BME280;35568;48.104;11.782;2023-05-11T09:13:33;95149.19;;;9.98;55.96
48156;BME280;35568;48.104;11.782;2023-05-11T09:15:59;95147.97;;;9.97;55.74
48156;BME280;35568;48.104;11.782;2023-05-11T09:18:26;95148.98;;;10.10;55.70
48156;BME280;35568;48.104;11.782;2023-05-11T09:20:53;95145.35;;;10.29;55.89
48156;BME280;35568;48.104;11.782;2023-05-11T09:23:25;95146.62;;;11.06;55.43
48156;BME280;35568;48.104;11.782;2023-05-11T09:25:53;95143.40;;;10.35;54.60
48156;BME280;35568;48.104;11.782;2023-05-11T09:28:21;95144.88;;;10.23;54.33
48156;BME280;35568;48.104;11.782;2023-05-11T09:30:48;95143.95;;;10.68;54.51
48156;BME280;35568;48.104;11.782;2023-05-11T09:33:21;95143.75;;;10.73;54.69
48156;BME280;35568;48.104;11.782;2023-05-11T09:35:49;95144.18;;;10.30;54.58
48156;BME280;35568;48.104;11.782;2023-05-11T09:38:16;95142.61;;;11.23;54.31
48156;BME280;35568;48.104;11.782;2023-05-11T09:40:50;95142.98;;;10.36;54.40
48156;BME280;35568;48.104;11.782;2023-05-11T09:43:19;95143.62;;;10.13;54.68
48156;BME280;35568;48.104;11.782;2023-05-11T09:45:47;95143.58;;;10.38;54.25
48156;BME280;35568;48.104;11.782;2023-05-11T09:48:31;95141.60;;;10.74;54.42
48156;BME280;35568;48.104;11.782;2023-05-11T09:51:00;95140.68;;;10.42;54.14
48156;BME280;35568;48.104;11.782;2023-05-11T09:53:37;95142.24;;;10.54;54.72
48156;BME280;35568;48.104;11.782;2023-05-11T09:56:04;95147.84;;;10.42;54.84
48156;BME280;35568;48.104;11.782;2023-05-11T09:58:49;95143.55;;;10.82;54.13
48156;BME280;35568;48.104;11.782;2023-05-11T10:01:26;95143.83;;;10.53;54.01
48156;BME280;35568;48.104;11.782;2023-05-11T10:03:53;95143.92;;;10.37;54.21
48156;BME280;35568;48.104;11.782;2023-05-11T10:06:20;95142.88;;;10.68;54.21
48156;BME280;35568;48.104;11.782;2023-05-11T10:08:47;95144.20;;;10.35;54.09
48156;BME280;35568;48.104;11.782;2023-05-11T10:11:15;95145.70;;;9.90;53.73
48156;BME280;35568;48.104;11.782;2023-05-11T10:13:43;95144.35;;;10.66;54.07
48156;BME280;35568;48.104;11.782;2023-05-11T10:16:11;95143.05;;;10.57;53.43
48156;BME280;35568;48.104;11.782;2023-05-11T10:18:39;95144.15;;;10.38;53.75
48156;BME280;35568;48.104;11.782;2023-05-11T10:21:07;95142.70;;;10.44;53.67
48156;BME280;35568;48.104;11.782;2023-05-11T10:23:35;95144.99;;;10.60;53.94
48156;BME280;35568;48.104;11.782;2023-05-11T10:26:03;95140.62;;;10.63;54.80
48156;BME280;35568;48.104;11.782;2023-05-11T10:28:30;95143.09;;;10.64;54.24
48156;BME280;35568;48.104;11.782;2023-05-11T10:30:58;95140.18;;;10.36;54.34
48156;BME280;35568;48.104;11.782;2023-05-11T10:33:25;95141.19;;;10.50;54.93
48156;BME280;35568;48.104;11.782;2023-05-11T10:35:53;95142.43;;;10.66;54.78
48156;BME280;35568;48.104;11.782;2023-05-11T10:38:20;95140.91;;;11.02;54.74
48156;BME280;35568;48.104;11.782;2023-05-11T10:40:50;95140.97;;;10.84;54.01
48156;BME280;35568;48.104;11.782;2023-05-11T10:43:34;95138.41;;;10.66;53.69
48156;BME280;35568;48.104;11.782;2023-05-11T10:46:18;95136.75;;;10.90;54.49
48156;BME280;35568;48.104;11.782;2023-05-11T10:49:06;95134.13;;;10.68;54.30
48156;BME280;35568;48.104;11.782;2023-05-11T10:51:45;95131.92;;;10.83;54.37
48156;BME280;35568;48.104;11.782;2023-05-11T10:54:28;95130.34;;;11.18;54.22
48156;BME280;35568;48.104;11.782;2023-05-11T10:57:12;95130.00;;;11.61;53.27
48156;BME280;35568;48.104;11.782;2023-05-11T10:59:57;95128.37;;;11.85;52.40
48156;BME280;35568;48.104;11.782;2023-05-11T11:02:30;95126.81;;;11.17;53.50
48156;BME280;35568;48.104;11.782;2023-05-11T11:04:57;95126.81;;;11.29;53.33
48156;BME280;35568;48.104;11.782;2023-05-11T11:07:24;95126.67;;;11.32;52.75
48156;BME280;35568;48.104;11.782;2023-05-11T11:09:55;95127.19;;;11.29;52.94
48156;BME280;35568;48.104;11.782;2023-05-11T11:12:23;95126.12;;;10.85;52.81
48156;BME280;35568;48.104;11.782;2023-05-11T11:14:55;95127.68;;;10.72;53.38
48156;BME280;35568;48.104;11.782;2023-05-11T11:17:24;95126.32;;;10.94;53.98
48156;BME280;35568;48.104;11.782;2023-05-11T11:19:52;95128.01;;;10.96;53.77
48156;BME280;35568;48.104;11.782;2023-05-11T11:22:50;95129.03;;;10.92;54.00
48156;BME280;35568;48.104;11.782;2023-05-11T11:26:00;95126.95;;;11.00;53.04
48156;BME280;35568;48.104;11.782;2023-05-11T11:28:27;95124.81;;;10.76;53.49
48156;BME280;35568;48.104;11.782;2023-05-11T11:31:22;95125.21;;;10.89;54.18
48156;BME280;35568;48.104;11.782;2023-05-11T11:33:49;95123.73;;;11.22;54.04
48156;BME280;35568;48.104;11.782;2023-05-11T11:36:16;95124.44;;;11.05;54.06
48156;BME280;35568;48.104;11.782;2023-05-11T11:38:56;95126.25;;;11.41;54.19
48156;BME280;35568;48.104;11.782;2023-05-11T11:41:27;95126.23;;;11.12;53.68
48156;BME280;35568;48.104;11.782;2023-05-11T11:43:54;95127.28;;;11.15;52.96
48156;BME280;35568;48.104;11.782;2023-05-11T11:46:25;95127.90;;;10.89;53.47
48156;BME280;35568;48.104;11.782;2023-05-11T11:49:06;95128.24;;;10.76;53.89
48156;BME280;35568;48.104;11.782;2023-05-11T11:51:34;95123.42;;;11.50;53.75
48156;BME280;35568;48.104;11.782;2023-05-11T11:54:01;95122.44;;;11.09;54.18
48156;BME280;35568;48.104;11.782;2023-05-11T11:56:38;95122.96;;;11.40;54.18
48156;BME280;35568;48.104;11.782;2023-05-11T11:59:05;95120.72;;;11.44;53.52
48156;BME280;35568;48.104;11.782;2023-05-11T12:01:36;95123.64;;;11.25;53.66
48156;BME280;35568;48.104;11.782;2023-05-11T12:04:34;95123.98;;;11.26;54.17
48156;BME280;35568;48.104;11.782;2023-05-11T12:07:02;95125.79;;;11.58;53.54
48156;BME280;35568;48.104;11.782;2023-05-11T12:09:32;95129.55;;;11.39;53.89
48156;BME280;35568;48.104;11.782;2023-05-11T12:12:00;95127.57;;;11.50;53.49
48156;BME280;35568;48.104;11.782;2023-05-11T12:14:27;95129.10;;;10.87;53.82
48156;BME280;35568;48.104;11.782;2023-05-11T12:17:00;95125.86;;;11.35;53.36
48156;BME280;35568;48.104;11.782;2023-05-11T12:19:28;95122.69;;;11.16;54.06
48156;BME280;35568;48.104;11.782;2023-05-11T12:21:55;95119.20;;;11.64;53.71
48156;BME280;35568;48.104;11.782;2023-05-11T12:24:21;95120.29;;;12.06;53.25
48156;BME280;35568;48.104;11.782;2023-05-11T12:26:48;95119.18;;;11.34;53.16
48156;BME280;35568;48.104;11.782;2023-05-11T12:29:15;95118.05;;;11.84;53.43
48156;BME280;35568;48.104;11.782;2023-05-11T12:31:44;95113.27;;;11.68;54.26
48156;BME280;35568;48.104;11.782;2023-05-11T12:34:13;95112.20;;;11.44;53.84
48156;BME280;35568;48.104;11.782;2023-05-11T12:36:41;95109.10;;;11.60;53.90
48156;BME280;35568;48.104;11.782;2023-05-11T12:39:16;95109.55;;;11.59;53.79
48156;BME280;35568;48.104;11.782;2023-05-11T12:41:43;95108.54;;;11.30;53.76
48156;BME280;35568;48.104;11.782;2023-05-11T12:44:10;95108.20;;;11.71;53.92
48156;BME280;35568;48.104;11.782;2023-05-11T12:46:37;95107.50;;;11.44;54.30
48156;BME280;35568;48.104;11.782;2023-05-11T12:49:05;95103.03;;;11.24;53.64
48156;BME280;35568;48.104;11.782;2023-05-11T12:51:50;95103.96;;;11.18;53.78
48156;BME280;35568;48.104;11.782;2023-05-11T12:54:27;95105.47;;;11.26;54.51
48156;BME280;35568;48.104;11.782;2023-05-11T12:56:55;95105.96;;;10.67;55.00
48156;BME280;35568;48.104;11.782;2023-05-11T12:59:28;95102.86;;;10.82;55.33
48156;BME280;35568;48.104;11.782;2023-05-11T13:02:04;95101.78;;;11.27;54.64
48156;BME280;35568;48.104;11.782;2023-05-11T13:04:32;95103.89;;;11.26;55.28
48156;BME280;35568;48.104;11.782;2023-05-11T13:06:59;95100.48;;;11.60;54.92
48156;BME280;35568;48.104;11.782;2023-05-11T13:09:26;95097.70;;;11.50;54.46